createdAt,value
2023-03-14T00:00:23.516Z,5.75
2023-03-14T00:02:56.477Z,7.90
2023-03-14T00:05:23.283Z,5.20
2023-03-14T00:07:52.422Z,7.45
2023-03-14T00:10:19.327Z,3.50
2023-03-14T00:12:48.613Z,2.95
2023-03-14T00:15:15.273Z,3.85
2023-03-14T00:17:46.510Z,3.22
2023-03-14T00:20:13.430Z,2.80
2023-03-14T00:22:41.084Z,2.80
2023-03-14T00:25:09.710Z,8.27
2023-03-14T00:27:37.289Z,4.40
2023-03-14T00:30:05.955Z,3.60
2023-03-14T00:32:34.931Z,3.92
2023-03-14T00:35:01.815Z,3.57
2023-03-14T00:37:31.150Z,4.22
2023-03-14T00:40:02.600Z,4.80
2023-03-14T00:42:29.352Z,4.47
2023-03-14T00:44:58.501Z,3.33
2023-03-14T00:47:25.195Z,4.25
2023-03-14T00:49:51.873Z,1.67
2023-03-14T00:52:20.861Z,5.68
2023-03-14T00:54:47.552Z,4.63
2023-03-14T00:57:14.284Z,5.13
2023-03-14T00:59:40.970Z,4.97
2023-03-14T01:02:07.654Z,12.70
2023-03-14T01:04:35.666Z,5.35
2023-03-14T01:07:02.465Z,5.78
2023-03-14T01:09:31.656Z,3.10
2023-03-14T01:12:00.519Z,3.42
2023-03-14T01:14:27.240Z,5.63
2023-03-14T01:16:54.060Z,5.10
2023-03-14T01:19:23.190Z,6.25
2023-03-14T01:21:49.843Z,3.67
2023-03-14T01:24:16.892Z,3.83
2023-03-14T01:26:43.694Z,3.72
2023-03-14T01:29:10.389Z,6.53
2023-03-14T01:31:39.463Z,4.93
2023-03-14T01:34:06.192Z,2.10
2023-03-14T01:36:32.958Z,5.00
2023-03-14T01:38:59.656Z,6.60
2023-03-14T01:41:27.063Z,2.55
2023-03-14T01:43:54.168Z,2.50
2023-03-14T01:46:39.662Z,4.10
2023-03-14T01:49:33.970Z,7.65
2023-03-14T01:52:06.900Z,8.05
2023-03-14T01:54:42.798Z,4.97
2023-03-14T01:57:23.857Z,5.85
2023-03-14T01:59:58.851Z,5.30
2023-03-14T02:02:27.561Z,3.20
2023-03-14T02:04:55.945Z,3.35
2023-03-14T02:07:38.684Z,3.95
2023-03-14T02:10:06.781Z,4.93
2023-03-14T02:12:35.001Z,4.57
2023-03-14T02:15:01.684Z,4.32
2023-03-14T02:17:28.562Z,5.57
2023-03-14T02:20:06.204Z,2.80
2023-03-14T02:22:38.013Z,5.97
2023-03-14T02:25:47.868Z,2.97
2023-03-14T02:30:45.112Z,2.15
2023-03-14T02:33:19.937Z,2.55
2023-03-14T02:35:49.582Z,3.40
2023-03-14T02:38:22.193Z,3.80
2023-03-14T02:40:50.388Z,3.38
2023-03-14T02:43:17.452Z,4.13
2023-03-14T02:45:49.284Z,2.78
2023-03-14T02:48:37.111Z,5.25
2023-03-14T02:51:03.972Z,6.25
2023-03-14T02:53:35.975Z,5.00
2023-03-14T02:56:03.138Z,8.52
2023-03-14T02:58:30.279Z,6.47
2023-03-14T03:00:59.500Z,6.10
2023-03-14T03:03:26.255Z,4.20
2023-03-14T03:05:56.988Z,4.65
2023-03-14T03:08:25.537Z,7.30
2023-03-14T03:10:55.064Z,4.90
2023-03-14T03:13:21.856Z,8.93
2023-03-14T03:15:48.593Z,6.45
2023-03-14T03:18:15.287Z,3.75
2023-03-14T03:20:44.216Z,7.18
2023-03-14T03:23:13.549Z,3.17
2023-03-14T03:25:42.668Z,9.43
2023-03-14T03:28:14.276Z,7.80
2023-03-14T03:30:42.183Z,8.50
2023-03-14T03:33:08.957Z,6.82
2023-03-14T03:35:36.111Z,6.93
2023-03-14T03:38:02.854Z,4.82
2023-03-14T03:40:31.765Z,6.30
2023-03-14T03:42:58.421Z,7.32
2023-03-14T03:45:25.154Z,8.90
2023-03-14T03:47:55.084Z,6.80
2023-03-14T03:52:53.041Z,5.37
2023-03-14T03:55:19.715Z,4.63
2023-03-14T03:57:48.640Z,5.97
2023-03-14T04:00:15.734Z,4.47
2023-03-14T04:02:42.735Z,3.08
2023-03-14T04:05:10.213Z,2.88
2023-03-14T04:07:36.943Z,2.20
2023-03-14T04:10:03.769Z,4.28
2023-03-14T04:12:30.521Z,2.80
2023-03-14T04:14:57.248Z,2.95
2023-03-14T04:17:28.638Z,2.35
2023-03-14T04:19:57.810Z,2.85
2023-03-14T04:22:24.560Z,3.47
2023-03-14T04:24:51.273Z,1.33
2023-03-14T04:27:17.935Z,3.47
2023-03-14T04:29:46.855Z,3.05
2023-03-14T04:32:13.551Z,2.50
2023-03-14T04:34:40.313Z,1.50
2023-03-14T04:37:07.042Z,1.20
2023-03-14T04:39:35.884Z,2.67
2023-03-14T04:42:04.718Z,1.02
2023-03-14T04:44:31.374Z,1.02
2023-03-14T04:46:58.428Z,1.27
2023-03-14T04:49:25.488Z,2.63
2023-03-14T04:51:52.478Z,1.48
2023-03-14T04:54:19.265Z,2.03
2023-03-14T04:56:48.337Z,3.03
2023-03-14T04:59:15.012Z,1.70
2023-03-14T05:01:42.197Z,1.00
2023-03-14T05:04:11.465Z,0.77
2023-03-14T05:06:40.709Z,1.77
2023-03-14T05:09:07.422Z,1.35
2023-03-14T05:11:34.084Z,1.00
2023-03-14T05:14:00.737Z,0.77
2023-03-14T05:16:27.690Z,0.60
2023-03-14T05:18:54.388Z,1.73
2023-03-14T05:21:23.590Z,2.38
2023-03-14T05:23:52.748Z,1.55
2023-03-14T05:26:19.396Z,1.05
2023-03-14T05:28:46.109Z,1.42
2023-03-14T05:31:15.433Z,1.60
2023-03-14T05:33:42.195Z,8.85
2023-03-14T05:36:09.442Z,1.27
2023-03-14T05:38:38.453Z,0.60
2023-03-14T05:41:07.560Z,0.88
2023-03-14T05:43:34.332Z,0.23
2023-03-14T05:46:01.056Z,0.40
2023-03-14T05:48:27.893Z,1.60
2023-03-14T05:51:00.237Z,0.50
2023-03-14T05:53:27.341Z,0.88
2023-03-14T05:55:56.783Z,0.95
2023-03-14T05:58:25.108Z,1.33
2023-03-14T06:00:54.853Z,1.20
2023-03-14T06:03:21.983Z,1.02
2023-03-14T06:05:51.786Z,1.30
2023-03-14T06:08:18.921Z,0.30
2023-03-14T06:10:48.556Z,2.28
2023-03-14T06:13:16.400Z,0.35
2023-03-14T06:15:43.516Z,0.52
2023-03-14T06:18:10.863Z,5.53
2023-03-14T06:20:40.152Z,0.20
2023-03-14T06:23:07.813Z,0.20
2023-03-14T06:25:35.327Z,0.20
2023-03-14T06:28:02.889Z,0.40
2023-03-14T06:30:30.075Z,0.63
2023-03-14T06:32:57.334Z,0.43
2023-03-14T06:35:24.803Z,0.85
2023-03-14T06:37:51.948Z,1.17
2023-03-14T06:40:21.808Z,0.55
2023-03-14T06:45:16.010Z,0.88
2023-03-14T06:47:43.140Z,0.80
2023-03-14T06:50:10.975Z,0.22
2023-03-14T06:52:42.137Z,0.75
2023-03-14T06:55:10.172Z,0.63
2023-03-14T06:57:37.351Z,3.05
2023-03-14T07:00:05.780Z,1.05
2023-03-14T07:02:42.621Z,0.45
2023-03-14T07:05:11.307Z,0.55
2023-03-14T07:07:40.699Z,0.90
2023-03-14T07:10:09.713Z,0.20
2023-03-14T07:12:37.153Z,1.00
2023-03-14T07:17:51.075Z,0.63
2023-03-14T07:20:20.283Z,0.65
2023-03-14T07:22:50.293Z,0.45
2023-03-14T07:27:48.873Z,0.90
2023-03-14T07:30:17.900Z,0.70
2023-03-14T07:32:44.626Z,0.30
2023-03-14T07:35:11.301Z,0.57
2023-03-14T07:37:40.701Z,0.55
2023-03-14T07:40:11.510Z,0.20
2023-03-14T07:42:38.285Z,0.63
2023-03-14T07:45:07.874Z,1.00
2023-03-14T07:47:34.767Z,0.17
2023-03-14T07:50:03.990Z,0.20
2023-03-14T07:52:33.378Z,0.65
2023-03-14T07:55:00.236Z,0.20
2023-03-14T07:57:26.964Z,0.22
2023-03-14T07:59:53.736Z,0.75
2023-03-14T08:02:23.288Z,0.20
2023-03-14T08:04:50.466Z,0.63
2023-03-14T08:07:17.651Z,0.35
2023-03-14T08:09:47.633Z,0.28
2023-03-14T08:12:16.993Z,0.50
2023-03-14T08:14:45.989Z,0.30
2023-03-14T08:17:12.795Z,0.28
2023-03-14T08:19:39.956Z,1.15
2023-03-14T08:22:07.055Z,0.20
2023-03-14T08:24:34.191Z,0.30
2023-03-14T08:27:01.329Z,0.28
2023-03-14T08:29:28.444Z,0.20
2023-03-14T08:31:55.947Z,0.20
2023-03-14T08:34:23.206Z,0.30
2023-03-14T08:36:49.911Z,0.20
2023-03-14T08:39:19.245Z,0.40
2023-03-14T08:41:46.039Z,0.20
2023-03-14T08:44:12.842Z,0.22
2023-03-14T08:46:39.714Z,0.20
2023-03-14T08:49:06.672Z,0.20
2023-03-14T08:51:33.393Z,0.20
2023-03-14T08:54:00.112Z,1.75
2023-03-14T08:56:26.880Z,0.20
2023-03-14T08:58:55.980Z,0.22
2023-03-14T09:01:26.384Z,1.55
2023-03-14T09:03:53.206Z,0.20
2023-03-14T09:06:19.947Z,0.20
2023-03-14T09:08:53.572Z,0.30
2023-03-14T09:11:22.518Z,0.22
2023-03-14T09:13:49.627Z,0.30
2023-03-14T09:16:21.547Z,4.45
2023-03-14T09:18:48.289Z,0.17
2023-03-14T09:21:15.413Z,0.35
2023-03-14T09:23:42.580Z,0.20
2023-03-14T09:26:09.291Z,0.28
2023-03-14T09:28:36.092Z,0.68
2023-03-14T09:31:10.818Z,0.20
2023-03-14T09:33:40.100Z,0.70
2023-03-14T09:36:08.583Z,0.68
2023-03-14T09:38:36.001Z,1.20
2023-03-14T09:41:13.143Z,0.50
2023-03-14T09:43:41.340Z,1.27
2023-03-14T09:46:11.363Z,2.50
2023-03-14T09:48:41.020Z,0.40
2023-03-14T09:51:15.004Z,2.15
2023-03-14T09:53:47.452Z,1.17
2023-03-14T09:56:36.045Z,2.60
2023-03-14T09:59:06.150Z,0.17
2023-03-14T10:01:34.023Z,1.38
2023-03-14T10:04:14.525Z,0.30
2023-03-14T10:06:44.013Z,0.65
2023-03-14T10:09:30.963Z,1.70
2023-03-14T10:12:09.003Z,0.60
2023-03-14T10:14:45.171Z,0.43
2023-03-14T10:17:14.388Z,0.77
2023-03-14T10:20:01.682Z,0.47
2023-03-14T10:22:33.647Z,1.65
2023-03-14T10:25:08.206Z,0.40
2023-03-14T10:27:36.736Z,1.10
2023-03-14T10:30:09.108Z,0.40
2023-03-14T10:32:43.077Z,1.13
2023-03-14T10:35:21.603Z,0.63
2023-03-14T10:37:59.440Z,0.40
2023-03-14T10:40:30.951Z,0.55
2023-03-14T10:43:00.017Z,0.95
2023-03-14T10:45:29.950Z,0.60
2023-03-14T10:50:32.995Z,2.70
2023-03-14T10:53:06.170Z,0.75
2023-03-14T10:55:44.126Z,0.30
2023-03-14T10:58:20.492Z,1.58
2023-03-14T11:00:53.614Z,0.60
2023-03-14T11:03:21.548Z,0.52
2023-03-14T11:05:52.802Z,0.60
2023-03-14T11:08:35.748Z,1.05
2023-03-14T11:11:12.155Z,0.55
2023-03-14T11:13:44.703Z,1.33
2023-03-14T11:16:26.510Z,0.70
2023-03-14T11:19:08.150Z,0.95
2023-03-14T11:21:41.496Z,0.75
2023-03-14T11:24:28.890Z,1.33
2023-03-14T11:27:06.206Z,0.55
2023-03-14T11:29:38.675Z,0.68
2023-03-14T11:32:11.429Z,1.75
2023-03-14T11:34:44.610Z,2.08
2023-03-14T11:37:27.171Z,1.05
2023-03-14T11:40:01.780Z,0.75
2023-03-14T11:42:30.705Z,1.15
2023-03-14T11:45:00.610Z,0.68
2023-03-14T11:50:21.559Z,1.17
2023-03-14T11:52:57.422Z,2.05
2023-03-14T11:55:27.517Z,1.60
2023-03-14T11:57:57.999Z,0.90
2023-03-14T12:00:25.755Z,1.27
2023-03-14T12:03:10.059Z,2.83
2023-03-14T12:05:42.936Z,1.90
2023-03-14T12:08:12.334Z,3.50
2023-03-14T12:10:47.146Z,1.73
2023-03-14T12:13:15.568Z,1.52
2023-03-14T12:15:48.737Z,1.30
2023-03-14T12:18:27.811Z,1.70
2023-03-14T12:21:05.818Z,1.03
2023-03-14T12:23:38.506Z,1.80
2023-03-14T12:26:25.035Z,0.63
2023-03-14T12:29:00.192Z,1.10
2023-03-14T12:31:32.788Z,0.40
2023-03-14T12:34:11.857Z,1.20
2023-03-14T12:36:49.861Z,0.63
2023-03-14T12:39:19.857Z,1.65
2023-03-14T12:44:36.533Z,0.50
2023-03-14T12:47:21.765Z,2.20
2023-03-14T12:49:51.851Z,1.23
2023-03-14T12:52:23.192Z,1.45
2023-03-14T12:55:01.644Z,0.70
2023-03-14T12:57:57.919Z,0.88
2023-03-14T13:00:35.071Z,2.35
2023-03-14T13:03:28.940Z,2.22
2023-03-14T13:05:58.965Z,2.40
2023-03-14T13:11:17.028Z,1.52
2023-03-14T13:13:50.532Z,3.45
2023-03-14T13:16:21.069Z,1.73
2023-03-14T13:18:59.599Z,1.63
2023-03-14T13:21:34.958Z,1.90
2023-03-14T13:24:21.502Z,2.65
2023-03-14T13:26:48.248Z,1.35
2023-03-14T13:29:25.860Z,0.98
2023-03-14T13:32:01.356Z,3.22
2023-03-14T13:34:34.900Z,2.30
2023-03-14T13:37:01.995Z,1.67
2023-03-14T13:39:30.244Z,4.07
2023-03-14T13:42:00.896Z,2.55
2023-03-14T13:44:33.482Z,3.40
2023-03-14T13:47:02.234Z,1.42
2023-03-14T13:49:32.262Z,3.60
2023-03-14T13:54:29.690Z,2.50
2023-03-14T13:57:07.146Z,4.47
2023-03-14T13:59:36.363Z,4.53
2023-03-14T14:02:25.765Z,4.97
2023-03-14T14:04:52.578Z,3.08
2023-03-14T14:07:19.524Z,1.02
2023-03-14T14:09:51.901Z,1.48
2023-03-14T14:12:39.299Z,2.35
2023-03-14T14:15:14.476Z,3.05
2023-03-14T14:17:46.538Z,4.88
2023-03-14T14:20:38.785Z,2.13
2023-03-14T14:23:10.561Z,2.55
2023-03-14T14:25:37.788Z,2.17
2023-03-14T14:28:28.841Z,4.90
2023-03-14T14:31:24.154Z,3.22
2023-03-14T14:34:00.815Z,2.78
2023-03-14T14:36:30.437Z,3.92
2023-03-14T14:39:18.708Z,11.15
2023-03-14T14:41:48.781Z,8.93
2023-03-14T14:46:44.945Z,8.43
2023-03-14T14:49:15.127Z,7.97
2023-03-14T14:54:16.942Z,4.03
2023-03-14T14:56:50.363Z,9.13
2023-03-14T14:59:27.859Z,8.35
2023-03-14T15:02:03.197Z,9.13
2023-03-14T15:04:33.076Z,7.22
2023-03-14T15:06:59.914Z,5.00
2023-03-14T15:09:28.809Z,6.53
2023-03-14T15:11:57.814Z,10.13
2023-03-14T15:14:24.523Z,6.22
2023-03-14T15:16:51.565Z,9.27
2023-03-14T15:19:25.604Z,10.82
2023-03-14T15:21:54.034Z,8.50
2023-03-14T15:24:20.980Z,7.25
2023-03-14T15:26:50.225Z,6.22
2023-03-14T15:29:18.105Z,9.80
2023-03-14T15:31:45.273Z,7.57
2023-03-14T15:34:14.580Z,4.07
2023-03-14T15:36:43.422Z,9.60
2023-03-14T15:39:11.908Z,4.72
2023-03-14T15:41:38.712Z,6.80
2023-03-14T15:44:10.602Z,9.52
2023-03-14T15:46:37.327Z,5.45
2023-03-14T15:49:04.087Z,3.95
2023-03-14T15:51:33.187Z,5.65
2023-03-14T15:54:02.537Z,7.57
2023-03-14T15:56:31.943Z,4.10
2023-03-14T15:59:01.126Z,4.05
2023-03-14T16:01:28.065Z,3.72
2023-03-14T16:03:54.887Z,2.60
2023-03-14T16:06:21.557Z,6.78
2023-03-14T16:08:48.298Z,4.38
2023-03-14T16:11:19.435Z,4.65
2023-03-14T16:13:47.938Z,3.47
2023-03-14T16:16:14.876Z,3.70
2023-03-14T16:18:44.848Z,5.05
2023-03-14T16:21:17.663Z,5.82
2023-03-14T16:23:45.841Z,4.93
2023-03-14T16:26:18.608Z,4.43
2023-03-14T16:28:48.556Z,3.53
2023-03-14T16:31:18.674Z,3.83
2023-03-14T16:33:48.032Z,2.90
2023-03-14T16:36:17.097Z,4.37
2023-03-14T16:38:47.573Z,5.70
2023-03-14T16:41:20.359Z,3.33
2023-03-14T16:43:52.099Z,4.43
2023-03-14T16:46:19.963Z,4.03
2023-03-14T16:48:46.969Z,3.17
2023-03-14T16:51:17.018Z,4.20
2023-03-14T16:56:11.664Z,3.67
2023-03-14T16:58:38.992Z,4.15
2023-03-14T17:01:12.805Z,4.32
2023-03-14T17:03:46.659Z,2.80
2023-03-14T17:06:23.682Z,4.60
2023-03-14T17:08:51.434Z,4.68
2023-03-14T17:11:18.250Z,3.53
2023-03-14T17:13:44.966Z,5.65
2023-03-14T17:16:12.569Z,7.35
2023-03-14T17:18:39.480Z,7.80
2023-03-14T17:21:09.740Z,4.47
2023-03-14T17:23:39.018Z,6.53
2023-03-14T17:26:05.988Z,5.70
2023-03-14T17:28:32.836Z,7.45
2023-03-14T17:31:08.122Z,8.05
2023-03-14T17:33:37.795Z,6.03
2023-03-14T17:36:07.838Z,12.00
2023-03-14T17:41:08.391Z,11.38
2023-03-14T17:43:35.149Z,8.13
2023-03-14T17:46:06.337Z,15.38
2023-03-14T17:48:33.120Z,8.55
2023-03-14T17:51:01.977Z,12.43
2023-03-14T17:53:31.512Z,11.47
2023-03-14T17:56:00.790Z,6.73
2023-03-14T17:58:28.063Z,8.30
2023-03-14T18:00:56.665Z,12.45
2023-03-14T18:03:23.675Z,13.30
2023-03-14T18:05:52.722Z,8.93
2023-03-14T18:08:19.442Z,16.80
2023-03-14T18:10:52.894Z,9.52
2023-03-14T18:13:21.996Z,13.02
2023-03-14T18:15:48.689Z,5.70
2023-03-14T18:18:15.434Z,11.55
2023-03-14T18:20:44.719Z,7.15
2023-03-14T18:23:11.371Z,5.80
2023-03-14T18:25:38.108Z,8.80
2023-03-14T18:28:06.938Z,11.75
2023-03-14T18:30:33.647Z,6.20
2023-03-14T18:33:00.419Z,13.57
2023-03-14T18:35:27.166Z,5.60
2023-03-14T18:37:56.743Z,8.80
2023-03-14T18:40:23.495Z,8.32
2023-03-14T18:42:50.188Z,7.95
2023-03-14T18:45:17.202Z,6.85
2023-03-14T18:47:43.867Z,12.50
2023-03-14T18:50:11.330Z,8.38
2023-03-14T18:52:40.428Z,5.60
2023-03-14T18:55:09.737Z,8.63
2023-03-14T18:57:36.466Z,7.72
2023-03-14T19:00:05.114Z,11.10
2023-03-14T19:02:31.876Z,10.10
2023-03-14T19:04:58.814Z,5.25
2023-03-14T19:07:28.047Z,10.75
2023-03-14T19:09:54.714Z,13.63
2023-03-14T19:12:23.793Z,10.52
2023-03-14T19:14:55.774Z,10.82
2023-03-14T19:17:24.804Z,8.77
2023-03-14T19:19:52.770Z,9.80
2023-03-14T19:22:19.496Z,11.23
2023-03-14T19:24:46.185Z,5.20
2023-03-14T19:27:13.006Z,4.18
2023-03-14T19:29:42.881Z,8.13
2023-03-14T19:32:10.554Z,10.55
2023-03-14T19:34:37.384Z,13.40
2023-03-14T19:37:04.133Z,8.63
2023-03-14T19:39:30.853Z,8.27
2023-03-14T19:41:59.440Z,8.98
2023-03-14T19:44:26.839Z,9.23
2023-03-14T19:46:54.262Z,14.02
2023-03-14T19:49:21.835Z,8.65
2023-03-14T19:51:49.690Z,7.50
2023-03-14T19:54:16.633Z,8.52
2023-03-14T19:56:43.296Z,9.70
2023-03-14T19:59:10.088Z,7.70
2023-03-14T20:01:38.774Z,4.45
2023-03-14T20:04:05.818Z,8.70
2023-03-14T20:06:32.900Z,8.52
2023-03-14T20:09:02.291Z,15.60
2023-03-14T20:11:35.420Z,5.03
2023-03-14T20:14:04.592Z,6.97
2023-03-14T20:16:35.916Z,10.02
2023-03-14T20:19:11.297Z,6.95
2023-03-14T20:21:40.539Z,10.93
2023-03-14T20:24:07.484Z,7.73
2023-03-14T20:26:34.929Z,6.40
2023-03-14T20:29:01.961Z,11.90
2023-03-14T20:31:28.914Z,11.65
2023-03-14T20:33:55.749Z,6.47
2023-03-14T20:36:24.980Z,4.78
2023-03-14T20:38:54.109Z,4.97
2023-03-14T20:41:20.802Z,7.93
2023-03-14T20:43:47.603Z,6.97
2023-03-14T20:46:17.684Z,7.53
2023-03-14T20:51:18.904Z,5.78
2023-03-14T20:53:48.069Z,8.15
2023-03-14T20:56:14.984Z,6.57
2023-03-14T20:58:41.767Z,4.60
2023-03-14T21:01:09.093Z,6.68
2023-03-14T21:03:35.869Z,11.55
2023-03-14T21:06:05.570Z,5.32
2023-03-14T21:08:32.352Z,8.10
2023-03-14T21:10:59.131Z,8.95
2023-03-14T21:13:25.949Z,6.63
2023-03-14T21:15:53.267Z,6.78
2023-03-14T21:18:22.994Z,7.47
2023-03-14T21:20:52.056Z,4.38
2023-03-14T21:23:18.984Z,8.65
2023-03-14T21:25:45.956Z,5.30
2023-03-14T21:28:13.102Z,6.75
2023-03-14T21:30:40.069Z,6.03
2023-03-14T21:33:08.976Z,4.75
2023-03-14T21:35:35.734Z,5.65
2023-03-14T21:38:02.670Z,6.35
2023-03-14T21:40:29.611Z,6.00
2023-03-14T21:42:58.420Z,7.25
2023-03-14T21:45:28.911Z,9.52
2023-03-14T21:47:59.305Z,7.85
2023-03-14T21:50:28.866Z,9.18
2023-03-14T21:52:59.708Z,6.47
2023-03-14T21:55:28.895Z,6.60
2023-03-14T21:57:56.074Z,10.80
2023-03-14T22:00:28.739Z,6.43
2023-03-14T22:03:12.155Z,8.82
2023-03-14T22:05:43.913Z,3.22
2023-03-14T22:08:11.124Z,8.35
2023-03-14T22:10:46.806Z,5.30
2023-03-14T22:13:16.628Z,5.95
2023-03-14T22:15:47.283Z,15.70
2023-03-14T22:18:17.940Z,11.50
2023-03-14T22:20:44.849Z,5.00
2023-03-14T22:23:16.015Z,9.02
2023-03-14T22:25:44.206Z,5.65
2023-03-14T22:28:11.042Z,11.35
2023-03-14T22:30:37.796Z,5.38
2023-03-14T22:33:07.376Z,9.57
2023-03-14T22:35:34.863Z,6.35
2023-03-14T22:38:01.704Z,9.10
2023-03-14T22:40:30.594Z,10.18
2023-03-14T22:42:57.423Z,7.18
2023-03-14T22:45:24.323Z,4.63
2023-03-14T22:47:51.058Z,7.82
2023-03-14T22:50:17.816Z,8.65
2023-03-14T22:52:44.568Z,7.45
2023-03-14T22:55:11.327Z,4.80
2023-03-14T22:57:41.161Z,8.73
2023-03-14T23:00:13.000Z,9.45
2023-03-14T23:02:40.755Z,6.57
2023-03-14T23:05:07.795Z,5.82
2023-03-14T23:07:34.480Z,8.98
2023-03-14T23:10:04.159Z,5.45
2023-03-14T23:12:30.835Z,4.22
2023-03-14T23:14:57.673Z,7.85
2023-03-14T23:17:26.805Z,6.78
2023-03-14T23:19:54.015Z,8.50
2023-03-14T23:22:21.063Z,12.55
2023-03-14T23:24:48.766Z,6.57
2023-03-14T23:27:19.340Z,10.55
2023-03-14T23:29:46.897Z,7.13
2023-03-14T23:32:15.473Z,10.15
2023-03-14T23:34:44.709Z,5.80
2023-03-14T23:37:14.640Z,5.70
2023-03-14T23:39:44.519Z,9.65
2023-03-14T23:42:11.521Z,9.95
2023-03-14T23:44:38.260Z,10.90
2023-03-14T23:47:07.787Z,7.38
2023-03-14T23:49:37.458Z,6.13
2023-03-14T23:52:04.861Z,8.07
2023-03-14T23:54:32.037Z,5.47
2023-03-14T23:56:58.964Z,6.03
2023-03-14T23:59:25.781Z,7.40
